sensor_id;sensor_type;location;lat;lon;timestamp;P1;durP1;ratioP1;P2;durP2;ratioP2
18425;SDS011;9340;48.756;9.226;2022-07-01T00:02:19;5.77;;;2.70;;
18425;SDS011;9340;48.756;9.226;2022-07-01T00:04:47;2.60;;;2.23;;
18425;SDS011;9340;48.756;9.226;2022-07-01T00:07:14;3.50;;;3.00;;
18425;SDS011;9340;48.756;9.226;2022-07-01T00:09:41;3.37;;;2.23;;
18425;SDS011;9340;48.756;9.226;2022-07-01T00:12:08;3.57;;;2.40;;
18425;SDS011;9340;48.756;9.226;2022-07-01T00:14:35;2.60;;;1.67;;
18425;SDS011;9340;48.756;9.226;2022-07-01T00:17:02;3.07;;;1.90;;
18425;SDS011;9340;48.756;9.226;2022-07-01T00:19:29;2.30;;;1.80;;
18425;SDS011;9340;48.756;9.226;2022-07-01T00:21:57;3.27;;;2.17;;
18425;SDS011;9340;48.756;9.226;2022-07-01T00:24:23;3.57;;;2.33;;
18425;SDS011;9340;48.756;9.226;2022-07-01T00:26:51;3.00;;;1.73;;
18425;SDS011;9340;48.756;9.226;2022-07-01T00:29:18;2.23;;;1.90;;
18425;SDS011;9340;48.756;9.226;2022-07-01T00:31:45;1.97;;;1.40;;
18425;SDS011;9340;48.756;9.226;2022-07-01T00:34:11;1.70;;;1.53;;
18425;SDS011;9340;48.756;9.226;2022-07-01T00:36:38;2.97;;;1.50;;
18425;SDS011;9340;48.756;9.226;2022-07-01T00:39:06;1.73;;;1.23;;
18425;SDS011;9340;48.756;9.226;2022-07-01T00:41:33;3.77;;;2.13;;
18425;SDS011;9340;48.756;9.226;2022-07-01T00:43:59;3.37;;;1.50;;
18425;SDS011;9340;48.756;9.226;2022-07-01T00:46:26;2.13;;;1.40;;
18425;SDS011;9340;48.756;9.226;2022-07-01T00:48:54;2.00;;;1.27;;
18425;SDS011;9340;48.756;9.226;2022-07-01T00:51:21;1.67;;;1.30;;
18425;SDS011;9340;48.756;9.226;2022-07-01T00:53:48;2.20;;;1.50;;
18425;SDS011;9340;48.756;9.226;2022-07-01T00:56:16;1.57;;;1.30;;
18425;SDS011;9340;48.756;9.226;2022-07-01T00:58:44;2.40;;;1.00;;
18425;SDS011;9340;48.756;9.226;2022-07-01T01:01:11;2.00;;;1.40;;
18425;SDS011;9340;48.756;9.226;2022-07-01T01:03:38;1.47;;;1.20;;
18425;SDS011;9340;48.756;9.226;2022-07-01T01:06:04;1.53;;;1.40;;
18425;SDS011;9340;48.756;9.226;2022-07-01T01:08:31;1.83;;;1.10;;
18425;SDS011;9340;48.756;9.226;2022-07-01T01:10:58;1.87;;;1.53;;
18425;SDS011;9340;48.756;9.226;2022-07-01T01:13:26;1.93;;;1.30;;
18425;SDS011;9340;48.756;9.226;2022-07-01T01:15:53;3.23;;;1.77;;
18425;SDS011;9340;48.756;9.226;2022-07-01T01:18:20;1.33;;;1.23;;
18425;SDS011;9340;48.756;9.226;2022-07-01T01:20:48;2.93;;;1.63;;
18425;SDS011;9340;48.756;9.226;2022-07-01T01:23:15;3.87;;;1.40;;
18425;SDS011;9340;48.756;9.226;2022-07-01T01:25:41;1.70;;;1.60;;
18425;SDS011;9340;48.756;9.226;2022-07-01T01:28:08;2.67;;;1.80;;
18425;SDS011;9340;48.756;9.226;2022-07-01T01:30:35;2.20;;;1.20;;
18425;SDS011;9340;48.756;9.226;2022-07-01T01:33:01;1.37;;;1.20;;
18425;SDS011;9340;48.756;9.226;2022-07-01T01:35:28;2.60;;;1.60;;
18425;SDS011;9340;48.756;9.226;2022-07-01T01:37:57;2.07;;;1.17;;
18425;SDS011;9340;48.756;9.226;2022-07-01T01:40:24;1.17;;;1.07;;
18425;SDS011;9340;48.756;9.226;2022-07-01T01:42:51;3.33;;;1.17;;
18425;SDS011;9340;48.756;9.226;2022-07-01T01:45:18;2.47;;;1.30;;
18425;SDS011;9340;48.756;9.226;2022-07-01T01:47:44;1.20;;;1.10;;
18425;SDS011;9340;48.756;9.226;2022-07-01T01:50:12;1.47;;;1.20;;
18425;SDS011;9340;48.756;9.226;2022-07-01T01:52:40;1.63;;;1.30;;
18425;SDS011;9340;48.756;9.226;2022-07-01T01:55:10;2.20;;;1.27;;
18425;SDS011;9340;48.756;9.226;2022-07-01T01:57:38;2.53;;;1.17;;
18425;SDS011;9340;48.756;9.226;2022-07-01T02:00:05;1.67;;;1.10;;
18425;SDS011;9340;48.756;9.226;2022-07-01T02:02:33;1.40;;;1.30;;
18425;SDS011;9340;48.756;9.226;2022-07-01T02:05:01;1.20;;;1.10;;
18425;SDS011;9340;48.756;9.226;2022-07-01T02:07:28;2.90;;;1.57;;
18425;SDS011;9340;48.756;9.226;2022-07-01T02:09:55;2.00;;;1.67;;
18425;SDS011;9340;48.756;9.226;2022-07-01T02:12:23;2.50;;;1.30;;
18425;SDS011;9340;48.756;9.226;2022-07-01T02:14:50;1.37;;;1.10;;
18425;SDS011;9340;48.756;9.226;2022-07-01T02:17:16;1.77;;;1.30;;
18425;SDS011;9340;48.756;9.226;2022-07-01T02:19:43;1.53;;;1.40;;
18425;SDS011;9340;48.756;9.226;2022-07-01T02:22:10;2.50;;;1.70;;
18425;SDS011;9340;48.756;9.226;2022-07-01T02:24:36;2.53;;;1.60;;
18425;SDS011;9340;48.756;9.226;2022-07-01T02:27:03;1.40;;;1.20;;
18425;SDS011;9340;48.756;9.226;2022-07-01T02:29:31;2.13;;;1.40;;
18425;SDS011;9340;48.756;9.226;2022-07-01T02:31:58;2.67;;;1.30;;
18425;SDS011;9340;48.756;9.226;2022-07-01T02:34:25;1.53;;;1.30;;
18425;SDS011;9340;48.756;9.226;2022-07-01T02:36:51;1.70;;;1.20;;
18425;SDS011;9340;48.756;9.226;2022-07-01T02:39:20;1.53;;;1.43;;
18425;SDS011;9340;48.756;9.226;2022-07-01T02:41:47;1.77;;;1.53;;
18425;SDS011;9340;48.756;9.226;2022-07-01T02:44:33;2.03;;;1.63;;
18425;SDS011;9340;48.756;9.226;2022-07-01T02:47:00;2.33;;;1.73;;
18425;SDS011;9340;48.756;9.226;2022-07-01T02:49:27;1.70;;;1.60;;
18425;SDS011;9340;48.756;9.226;2022-07-01T02:51:53;1.30;;;1.10;;
18425;SDS011;9340;48.756;9.226;2022-07-01T02:54:20;1.33;;;1.23;;
18425;SDS011;9340;48.756;9.226;2022-07-01T02:56:46;2.00;;;1.40;;
18425;SDS011;9340;48.756;9.226;2022-07-01T02:59:13;2.20;;;1.30;;
18425;SDS011;9340;48.756;9.226;2022-07-01T03:01:41;1.80;;;1.33;;
18425;SDS011;9340;48.756;9.226;2022-07-01T03:04:08;1.90;;;1.40;;
18425;SDS011;9340;48.756;9.226;2022-07-01T03:06:34;1.97;;;1.67;;
18425;SDS011;9340;48.756;9.226;2022-07-01T03:09:01;2.20;;;1.57;;
18425;SDS011;9340;48.756;9.226;2022-07-01T03:11:28;1.97;;;1.80;;
18425;SDS011;9340;48.756;9.226;2022-07-01T03:13:55;3.43;;;1.83;;
18425;SDS011;9340;48.756;9.226;2022-07-01T03:16:21;4.40;;;2.40;;
18425;SDS011;9340;48.756;9.226;2022-07-01T03:18:49;1.93;;;1.70;;
18425;SDS011;9340;48.756;9.226;2022-07-01T03:21:16;2.47;;;2.27;;
18425;SDS011;9340;48.756;9.226;2022-07-01T03:23:43;3.30;;;2.13;;
18425;SDS011;9340;48.756;9.226;2022-07-01T03:26:09;3.10;;;2.47;;
18425;SDS011;9340;48.756;9.226;2022-07-01T03:28:36;2.60;;;1.80;;
18425;SDS011;9340;48.756;9.226;2022-07-01T03:31:03;2.70;;;2.10;;
18425;SDS011;9340;48.756;9.226;2022-07-01T03:33:29;2.27;;;1.87;;
18425;SDS011;9340;48.756;9.226;2022-07-01T03:35:57;2.73;;;2.37;;
18425;SDS011;9340;48.756;9.226;2022-07-01T03:38:24;6.13;;;1.83;;
18425;SDS011;9340;48.756;9.226;2022-07-01T03:40:50;2.97;;;2.17;;
18425;SDS011;9340;48.756;9.226;2022-07-01T03:43:17;6.77;;;2.03;;
18425;SDS011;9340;48.756;9.226;2022-07-01T03:45:44;2.20;;;2.00;;
18425;SDS011;9340;48.756;9.226;2022-07-01T03:48:10;2.37;;;1.90;;
18425;SDS011;9340;48.756;9.226;2022-07-01T03:50:37;2.50;;;2.03;;
18425;SDS011;9340;48.756;9.226;2022-07-01T03:53:05;5.53;;;1.90;;
18425;SDS011;9340;48.756;9.226;2022-07-01T03:55:49;1.73;;;1.63;;
18425;SDS011;9340;48.756;9.226;2022-07-01T03:58:16;2.17;;;1.97;;
18425;SDS011;9340;48.756;9.226;2022-07-01T04:00:42;2.17;;;1.97;;
18425;SDS011;9340;48.756;9.226;2022-07-01T04:03:09;1.90;;;1.77;;
18425;SDS011;9340;48.756;9.226;2022-07-01T04:05:36;2.30;;;1.70;;
18425;SDS011;9340;48.756;9.226;2022-07-01T04:08:06;1.97;;;1.80;;
18425;SDS011;9340;48.756;9.226;2022-07-01T04:10:36;1.80;;;1.50;;
18425;SDS011;9340;48.756;9.226;2022-07-01T04:13:04;2.40;;;1.90;;
18425;SDS011;9340;48.756;9.226;2022-07-01T04:15:31;4.10;;;1.97;;
18425;SDS011;9340;48.756;9.226;2022-07-01T04:17:59;2.60;;;2.10;;
18425;SDS011;9340;48.756;9.226;2022-07-01T04:20:25;3.17;;;1.70;;
18425;SDS011;9340;48.756;9.226;2022-07-01T04:22:52;2.57;;;2.13;;
18425;SDS011;9340;48.756;9.226;2022-07-01T04:25:19;2.43;;;2.00;;
18425;SDS011;9340;48.756;9.226;2022-07-01T04:27:46;2.70;;;1.93;;
18425;SDS011;9340;48.756;9.226;2022-07-01T04:30:12;1.87;;;1.20;;
18425;SDS011;9340;48.756;9.226;2022-07-01T04:32:39;1.90;;;1.80;;
18425;SDS011;9340;48.756;9.226;2022-07-01T04:35:07;2.83;;;1.80;;
18425;SDS011;9340;48.756;9.226;2022-07-01T04:37:37;2.57;;;1.40;;
18425;SDS011;9340;48.756;9.226;2022-07-01T04:40:04;3.07;;;1.80;;
18425;SDS011;9340;48.756;9.226;2022-07-01T04:42:33;1.43;;;1.30;;
18425;SDS011;9340;48.756;9.226;2022-07-01T04:44:58;2.20;;;1.37;;
18425;SDS011;9340;48.756;9.226;2022-07-01T04:47:25;1.97;;;1.53;;
18425;SDS011;9340;48.756;9.226;2022-07-01T04:49:57;3.00;;;1.77;;
18425;SDS011;9340;48.756;9.226;2022-07-01T04:52:24;1.30;;;1.20;;
18425;SDS011;9340;48.756;9.226;2022-07-01T04:54:50;1.20;;;1.10;;
18425;SDS011;9340;48.756;9.226;2022-07-01T04:57:18;1.57;;;1.47;;
18425;SDS011;9340;48.756;9.226;2022-07-01T04:59:46;2.77;;;1.60;;
18425;SDS011;9340;48.756;9.226;2022-07-01T05:02:13;2.07;;;1.27;;
18425;SDS011;9340;48.756;9.226;2022-07-01T05:04:39;4.23;;;1.60;;
18425;SDS011;9340;48.756;9.226;2022-07-01T05:07:06;3.30;;;1.60;;
18425;SDS011;9340;48.756;9.226;2022-07-01T05:09:52;2.20;;;1.47;;
18425;SDS011;9340;48.756;9.226;2022-07-01T05:12:19;2.43;;;2.23;;
18425;SDS011;9340;48.756;9.226;2022-07-01T05:14:48;2.10;;;1.30;;
18425;SDS011;9340;48.756;9.226;2022-07-01T05:17:14;2.93;;;1.60;;
18425;SDS011;9340;48.756;9.226;2022-07-01T05:19:41;1.67;;;1.57;;
18425;SDS011;9340;48.756;9.226;2022-07-01T05:22:25;3.33;;;1.70;;
18425;SDS011;9340;48.756;9.226;2022-07-01T05:24:52;1.87;;;1.60;;
18425;SDS011;9340;48.756;9.226;2022-07-01T05:27:18;1.40;;;1.10;;
18425;SDS011;9340;48.756;9.226;2022-07-01T05:29:45;1.50;;;1.40;;
18425;SDS011;9340;48.756;9.226;2022-07-01T05:32:13;2.73;;;1.70;;
18425;SDS011;9340;48.756;9.226;2022-07-01T05:34:40;2.07;;;1.80;;
18425;SDS011;9340;48.756;9.226;2022-07-01T05:37:07;1.63;;;1.53;;
18425;SDS011;9340;48.756;9.226;2022-07-01T05:39:34;2.43;;;1.50;;
18425;SDS011;9340;48.756;9.226;2022-07-01T05:42:01;1.70;;;1.60;;
18425;SDS011;9340;48.756;9.226;2022-07-01T05:44:28;2.87;;;1.80;;
18425;SDS011;9340;48.756;9.226;2022-07-01T05:46:54;3.00;;;2.30;;
18425;SDS011;9340;48.756;9.226;2022-07-01T05:49:22;2.20;;;2.00;;
18425;SDS011;9340;48.756;9.226;2022-07-01T05:51:49;2.03;;;1.80;;
18425;SDS011;9340;48.756;9.226;2022-07-01T05:54:15;2.90;;;1.90;;
18425;SDS011;9340;48.756;9.226;2022-07-01T05:56:42;2.33;;;2.07;;
18425;SDS011;9340;48.756;9.226;2022-07-01T05:59:09;3.33;;;2.30;;
18425;SDS011;9340;48.756;9.226;2022-07-01T06:01:36;2.83;;;2.53;;
18425;SDS011;9340;48.756;9.226;2022-07-01T06:04:03;3.73;;;1.90;;
18425;SDS011;9340;48.756;9.226;2022-07-01T06:06:31;2.73;;;1.97;;
18425;SDS011;9340;48.756;9.226;2022-07-01T06:08:57;3.03;;;2.40;;
18425;SDS011;9340;48.756;9.226;2022-07-01T06:11:24;3.50;;;2.10;;
18425;SDS011;9340;48.756;9.226;2022-07-01T06:13:51;3.00;;;2.70;;
18425;SDS011;9340;48.756;9.226;2022-07-01T06:16:17;3.03;;;2.73;;
18425;SDS011;9340;48.756;9.226;2022-07-01T06:18:44;2.97;;;2.67;;
18425;SDS011;9340;48.756;9.226;2022-07-01T06:21:11;2.50;;;2.13;;
18425;SDS011;9340;48.756;9.226;2022-07-01T06:23:39;3.10;;;2.80;;
18425;SDS011;9340;48.756;9.226;2022-07-01T06:26:05;3.60;;;2.90;;
18425;SDS011;9340;48.756;9.226;2022-07-01T06:28:32;4.27;;;2.90;;
18425;SDS011;9340;48.756;9.226;2022-07-01T06:30:59;2.70;;;2.50;;
18425;SDS011;9340;48.756;9.226;2022-07-01T06:33:25;3.63;;;2.97;;
18425;SDS011;9340;48.756;9.226;2022-07-01T06:35:54;4.47;;;2.90;;
18425;SDS011;9340;48.756;9.226;2022-07-01T06:38:21;7.03;;;3.10;;
18425;SDS011;9340;48.756;9.226;2022-07-01T06:40:49;6.13;;;3.10;;
18425;SDS011;9340;48.756;9.226;2022-07-01T06:43:30;2.50;;;2.30;;
18425;SDS011;9340;48.756;9.226;2022-07-01T06:45:57;4.90;;;3.07;;
18425;SDS011;9340;48.756;9.226;2022-07-01T06:48:23;2.80;;;2.40;;
18425;SDS011;9340;48.756;9.226;2022-07-01T06:50:50;3.27;;;2.97;;
18425;SDS011;9340;48.756;9.226;2022-07-01T06:53:17;3.83;;;3.27;;
18425;SDS011;9340;48.756;9.226;2022-07-01T06:55:43;3.30;;;3.00;;
18425;SDS011;9340;48.756;9.226;2022-07-01T06:58:11;3.57;;;2.63;;
18425;SDS011;9340;48.756;9.226;2022-07-01T07:00:38;2.83;;;2.40;;
18425;SDS011;9340;48.756;9.226;2022-07-01T07:03:05;3.00;;;2.67;;
18425;SDS011;9340;48.756;9.226;2022-07-01T07:05:31;4.50;;;2.63;;
18425;SDS011;9340;48.756;9.226;2022-07-01T07:07:58;3.27;;;2.70;;
18425;SDS011;9340;48.756;9.226;2022-07-01T07:10:25;3.17;;;2.63;;
18425;SDS011;9340;48.756;9.226;2022-07-01T07:12:51;3.13;;;2.00;;
18425;SDS011;9340;48.756;9.226;2022-07-01T07:15:19;2.97;;;2.20;;
18425;SDS011;9340;48.756;9.226;2022-07-01T07:17:46;2.53;;;2.10;;
18425;SDS011;9340;48.756;9.226;2022-07-01T07:20:13;2.50;;;2.30;;
18425;SDS011;9340;48.756;9.226;2022-07-01T07:22:39;2.33;;;2.13;;
18425;SDS011;9340;48.756;9.226;2022-07-01T07:25:06;3.20;;;2.27;;
18425;SDS011;9340;48.756;9.226;2022-07-01T07:27:33;2.70;;;2.50;;
18425;SDS011;9340;48.756;9.226;2022-07-01T07:30:00;3.47;;;2.50;;
18425;SDS011;9340;48.756;9.226;2022-07-01T07:32:29;2.50;;;2.30;;
18425;SDS011;9340;48.756;9.226;2022-07-01T07:34:56;2.43;;;2.23;;
18425;SDS011;9340;48.756;9.226;2022-07-01T07:37:22;2.37;;;1.83;;
18425;SDS011;9340;48.756;9.226;2022-07-01T07:39:49;2.30;;;2.10;;
18425;SDS011;9340;48.756;9.226;2022-07-01T07:42:16;2.67;;;2.47;;
18425;SDS011;9340;48.756;9.226;2022-07-01T07:44:42;3.30;;;2.90;;
18425;SDS011;9340;48.756;9.226;2022-07-01T07:47:09;3.50;;;2.50;;
18425;SDS011;9340;48.756;9.226;2022-07-01T07:49:37;2.40;;;2.20;;
18425;SDS011;9340;48.756;9.226;2022-07-01T07:52:04;2.57;;;2.30;;
18425;SDS011;9340;48.756;9.226;2022-07-01T07:54:31;2.47;;;1.97;;
18425;SDS011;9340;48.756;9.226;2022-07-01T07:56:57;1.93;;;1.83;;
18425;SDS011;9340;48.756;9.226;2022-07-01T07:59:24;2.10;;;1.90;;
18425;SDS011;9340;48.756;9.226;2022-07-01T08:01:51;2.53;;;2.17;;
18425;SDS011;9340;48.756;9.226;2022-07-01T08:04:17;2.90;;;2.00;;
18425;SDS011;9340;48.756;9.226;2022-07-01T08:06:45;2.60;;;1.87;;
18425;SDS011;9340;48.756;9.226;2022-07-01T08:09:12;2.40;;;1.97;;
18425;SDS011;9340;48.756;9.226;2022-07-01T08:11:38;2.60;;;1.97;;
18425;SDS011;9340;48.756;9.226;2022-07-01T08:14:05;4.30;;;2.00;;
18425;SDS011;9340;48.756;9.226;2022-07-01T08:16:32;2.10;;;1.90;;
18425;SDS011;9340;48.756;9.226;2022-07-01T08:18:58;2.63;;;2.17;;
18425;SDS011;9340;48.756;9.226;2022-07-01T08:21:25;2.10;;;1.90;;
18425;SDS011;9340;48.756;9.226;2022-07-01T08:23:53;2.40;;;1.70;;
18425;SDS011;9340;48.756;9.226;2022-07-01T08:26:20;1.60;;;1.47;;
18425;SDS011;9340;48.756;9.226;2022-07-01T08:28:47;2.23;;;2.00;;
18425;SDS011;9340;48.756;9.226;2022-07-01T08:31:14;1.50;;;1.40;;
18425;SDS011;9340;48.756;9.226;2022-07-01T08:33:41;2.15;;;1.67;;
18425;SDS011;9340;48.756;9.226;2022-07-01T08:36:08;1.70;;;1.60;;
18425;SDS011;9340;48.756;9.226;2022-07-01T08:38:36;3.40;;;1.85;;
18425;SDS011;9340;48.756;9.226;2022-07-01T08:41:04;2.33;;;1.50;;
18425;SDS011;9340;48.756;9.226;2022-07-01T08:43:31;2.07;;;1.47;;
18425;SDS011;9340;48.756;9.226;2022-07-01T08:45:59;2.05;;;1.50;;
18425;SDS011;9340;48.756;9.226;2022-07-01T08:48:27;1.92;;;1.65;;
18425;SDS011;9340;48.756;9.226;2022-07-01T08:50:54;1.50;;;1.27;;
18425;SDS011;9340;48.756;9.226;2022-07-01T08:53:21;1.50;;;1.40;;
18425;SDS011;9340;48.756;9.226;2022-07-01T08:55:48;1.60;;;1.50;;
18425;SDS011;9340;48.756;9.226;2022-07-01T08:58:33;2.35;;;1.30;;
18425;SDS011;9340;48.756;9.226;2022-07-01T09:01:12;1.83;;;1.73;;
18425;SDS011;9340;48.756;9.226;2022-07-01T09:03:39;1.50;;;1.40;;
18425;SDS011;9340;48.756;9.226;2022-07-01T09:06:10;1.50;;;1.40;;
18425;SDS011;9340;48.756;9.226;2022-07-01T09:08:38;2.40;;;1.42;;
18425;SDS011;9340;48.756;9.226;2022-07-01T09:11:10;2.17;;;1.60;;
18425;SDS011;9340;48.756;9.226;2022-07-01T09:13:39;3.28;;;1.80;;
18425;SDS011;9340;48.756;9.226;2022-07-01T09:16:10;2.65;;;1.98;;
18425;SDS011;9340;48.756;9.226;2022-07-01T09:18:37;1.87;;;1.70;;
18425;SDS011;9340;48.756;9.226;2022-07-01T09:21:06;1.73;;;1.63;;
18425;SDS011;9340;48.756;9.226;2022-07-01T09:23:34;3.10;;;2.03;;
18425;SDS011;9340;48.756;9.226;2022-07-01T09:26:00;4.83;;;2.80;;
18425;SDS011;9340;48.756;9.226;2022-07-01T09:28:27;5.27;;;2.30;;
18425;SDS011;9340;48.756;9.226;2022-07-01T09:30:56;2.47;;;2.17;;
18425;SDS011;9340;48.756;9.226;2022-07-01T09:33:24;2.73;;;2.50;;
18425;SDS011;9340;48.756;9.226;2022-07-01T09:35:52;2.77;;;1.97;;
18425;SDS011;9340;48.756;9.226;2022-07-01T09:38:20;2.77;;;2.53;;
18425;SDS011;9340;48.756;9.226;2022-07-01T09:40:50;2.27;;;2.03;;
18425;SDS011;9340;48.756;9.226;2022-07-01T09:43:19;2.97;;;2.30;;
18425;SDS011;9340;48.756;9.226;2022-07-01T09:45:56;3.77;;;2.13;;
18425;SDS011;9340;48.756;9.226;2022-07-01T09:48:25;2.50;;;2.30;;
18425;SDS011;9340;48.756;9.226;2022-07-01T09:50:54;4.83;;;2.60;;
18425;SDS011;9340;48.756;9.226;2022-07-01T09:53:20;4.20;;;2.67;;
18425;SDS011;9340;48.756;9.226;2022-07-01T09:55:47;3.50;;;3.20;;
18425;SDS011;9340;48.756;9.226;2022-07-01T09:58:14;4.00;;;2.80;;
18425;SDS011;9340;48.756;9.226;2022-07-01T10:00:41;3.20;;;2.90;;
18425;SDS011;9340;48.756;9.226;2022-07-01T10:03:09;3.33;;;2.77;;
18425;SDS011;9340;48.756;9.226;2022-07-01T10:05:38;4.53;;;2.93;;
18425;SDS011;9340;48.756;9.226;2022-07-01T10:08:15;2.77;;;2.57;;
18425;SDS011;9340;48.756;9.226;2022-07-01T10:10:55;3.33;;;2.97;;
18425;SDS011;9340;48.756;9.226;2022-07-01T10:13:33;4.47;;;3.10;;
18425;SDS011;9340;48.756;9.226;2022-07-01T10:16:01;3.53;;;3.23;;
18425;SDS011;9340;48.756;9.226;2022-07-01T10:18:31;2.80;;;2.60;;
18425;SDS011;9340;48.756;9.226;2022-07-01T10:20:57;3.03;;;2.73;;
18425;SDS011;9340;48.756;9.226;2022-07-01T10:23:27;3.53;;;2.20;;
18425;SDS011;9340;48.756;9.226;2022-07-01T10:26:02;2.63;;;2.43;;
18425;SDS011;9340;48.756;9.226;2022-07-01T10:28:40;2.87;;;2.40;;
18425;SDS011;9340;48.756;9.226;2022-07-01T10:31:08;3.50;;;2.73;;
18425;SDS011;9340;48.756;9.226;2022-07-01T10:33:45;3.10;;;2.80;;
18425;SDS011;9340;48.756;9.226;2022-07-01T10:36:14;3.77;;;2.83;;
18425;SDS011;9340;48.756;9.226;2022-07-01T10:41:40;2.10;;;2.00;;
18425;SDS011;9340;48.756;9.226;2022-07-01T10:44:09;2.40;;;2.20;;
18425;SDS011;9340;48.756;9.226;2022-07-01T10:46:38;2.17;;;1.98;;
18425;SDS011;9340;48.756;9.226;2022-07-01T10:49:12;2.20;;;2.00;;
18425;SDS011;9340;48.756;9.226;2022-07-01T10:51:43;3.05;;;1.88;;
18425;SDS011;9340;48.756;9.226;2022-07-01T10:54:12;2.28;;;2.08;;
18425;SDS011;9340;48.756;9.226;2022-07-01T10:56:40;2.17;;;1.73;;
18425;SDS011;9340;48.756;9.226;2022-07-01T10:59:07;2.72;;;2.22;;
18425;SDS011;9340;48.756;9.226;2022-07-01T11:01:33;2.38;;;2.17;;
18425;SDS011;9340;48.756;9.226;2022-07-01T11:04:02;1.73;;;1.63;;
18425;SDS011;9340;48.756;9.226;2022-07-01T11:06:30;2.08;;;1.88;;
18425;SDS011;9340;48.756;9.226;2022-07-01T11:09:01;2.88;;;2.17;;
18425;SDS011;9340;48.756;9.226;2022-07-01T11:11:27;2.38;;;2.17;;
18425;SDS011;9340;48.756;9.226;2022-07-01T11:13:56;4.30;;;2.03;;
18425;SDS011;9340;48.756;9.226;2022-07-01T11:16:23;2.60;;;2.40;;
18425;SDS011;9340;48.756;9.226;2022-07-01T11:18:50;2.67;;;2.17;;
18425;SDS011;9340;48.756;9.226;2022-07-01T11:21:17;2.55;;;2.10;;
18425;SDS011;9340;48.756;9.226;2022-07-01T11:23:53;3.15;;;2.22;;
18425;SDS011;9340;48.756;9.226;2022-07-01T11:26:21;2.63;;;2.15;;
18425;SDS011;9340;48.756;9.226;2022-07-01T11:28:48;2.03;;;1.50;;
18425;SDS011;9340;48.756;9.226;2022-07-01T11:31:15;2.67;;;1.88;;
18425;SDS011;9340;48.756;9.226;2022-07-01T11:33:52;2.17;;;1.83;;
18425;SDS011;9340;48.756;9.226;2022-07-01T11:36:18;1.77;;;1.67;;
18425;SDS011;9340;48.756;9.226;2022-07-01T11:39:13;3.20;;;2.20;;
18425;SDS011;9340;48.756;9.226;2022-07-01T11:41:51;3.40;;;2.30;;
18425;SDS011;9340;48.756;9.226;2022-07-01T11:44:27;3.28;;;1.92;;
18425;SDS011;9340;48.756;9.226;2022-07-01T11:46:57;2.10;;;1.90;;
18425;SDS011;9340;48.756;9.226;2022-07-01T11:49:24;2.25;;;2.00;;
18425;SDS011;9340;48.756;9.226;2022-07-01T11:51:54;3.60;;;2.20;;
18425;SDS011;9340;48.756;9.226;2022-07-01T11:54:22;2.63;;;1.80;;
18425;SDS011;9340;48.756;9.226;2022-07-01T11:56:49;2.35;;;1.70;;
18425;SDS011;9340;48.756;9.226;2022-07-01T11:59:16;3.65;;;2.42;;
18425;SDS011;9340;48.756;9.226;2022-07-01T12:01:50;2.22;;;2.03;;
18425;SDS011;9340;48.756;9.226;2022-07-01T12:04:18;1.65;;;1.55;;
18425;SDS011;9340;48.756;9.226;2022-07-01T12:06:45;1.60;;;1.50;;
18425;SDS011;9340;48.756;9.226;2022-07-01T12:09:13;1.98;;;1.50;;
18425;SDS011;9340;48.756;9.226;2022-07-01T12:11:44;2.17;;;1.95;;
18425;SDS011;9340;48.756;9.226;2022-07-01T12:14:12;2.35;;;2.15;;
18425;SDS011;9340;48.756;9.226;2022-07-01T12:16:46;2.47;;;1.65;;
18425;SDS011;9340;48.756;9.226;2022-07-01T12:19:13;1.83;;;1.50;;
18425;SDS011;9340;48.756;9.226;2022-07-01T12:21:50;1.67;;;1.40;;
18425;SDS011;9340;48.756;9.226;2022-07-01T12:24:18;1.70;;;1.40;;
18425;SDS011;9340;48.756;9.226;2022-07-01T12:26:49;1.42;;;1.23;;
18425;SDS011;9340;48.756;9.226;2022-07-01T12:29:17;4.88;;;1.60;;
18425;SDS011;9340;48.756;9.226;2022-07-01T12:31:53;2.50;;;1.23;;
18425;SDS011;9340;48.756;9.226;2022-07-01T12:34:21;1.40;;;1.30;;
18425;SDS011;9340;48.756;9.226;2022-07-01T12:36:48;1.63;;;1.52;;
18425;SDS011;9340;48.756;9.226;2022-07-01T12:39:16;1.85;;;1.52;;
18425;SDS011;9340;48.756;9.226;2022-07-01T12:41:50;1.70;;;1.48;;
18425;SDS011;9340;48.756;9.226;2022-07-01T12:44:20;3.20;;;1.70;;
18425;SDS011;9340;48.756;9.226;2022-07-01T12:46:48;1.73;;;1.60;;
18425;SDS011;9340;48.756;9.226;2022-07-01T12:49:17;2.92;;;1.90;;
18425;SDS011;9340;48.756;9.226;2022-07-01T12:51:45;2.45;;;1.60;;
18425;SDS011;9340;48.756;9.226;2022-07-01T12:56:56;2.88;;;2.15;;
18425;SDS011;9340;48.756;9.226;2022-07-01T12:59:23;3.45;;;1.83;;
18425;SDS011;9340;48.756;9.226;2022-07-01T13:01:49;2.10;;;1.90;;
18425;SDS011;9340;48.756;9.226;2022-07-01T13:04:22;3.30;;;2.05;;
18425;SDS011;9340;48.756;9.226;2022-07-01T13:06:50;4.32;;;2.80;;
18425;SDS011;9340;48.756;9.226;2022-07-01T13:09:16;6.65;;;3.20;;
18425;SDS011;9340;48.756;9.226;2022-07-01T13:11:43;3.95;;;3.17;;
18425;SDS011;9340;48.756;9.226;2022-07-01T13:14:12;9.82;;;3.90;;
18425;SDS011;9340;48.756;9.226;2022-07-01T13:16:38;3.63;;;2.70;;
18425;SDS011;9340;48.756;9.226;2022-07-01T13:19:05;2.15;;;1.95;;
18425;SDS011;9340;48.756;9.226;2022-07-01T13:21:32;2.33;;;2.13;;
18425;SDS011;9340;48.756;9.226;2022-07-01T13:23:58;2.50;;;2.30;;
18425;SDS011;9340;48.756;9.226;2022-07-01T13:26:25;2.97;;;2.05;;
18425;SDS011;9340;48.756;9.226;2022-07-01T13:28:51;5.53;;;3.03;;
18425;SDS011;9340;48.756;9.226;2022-07-01T13:31:20;3.92;;;2.50;;
18425;SDS011;9340;48.756;9.226;2022-07-01T13:33:47;3.05;;;2.10;;
18425;SDS011;9340;48.756;9.226;2022-07-01T13:36:13;5.18;;;3.08;;
18425;SDS011;9340;48.756;9.226;2022-07-01T13:38:40;2.70;;;2.33;;
18425;SDS011;9340;48.756;9.226;2022-07-01T13:41:08;4.47;;;2.83;;
18425;SDS011;9340;48.756;9.226;2022-07-01T13:43:35;3.15;;;2.95;;
18425;SDS011;9340;48.756;9.226;2022-07-01T13:46:01;3.08;;;2.15;;
18425;SDS011;9340;48.756;9.226;2022-07-01T13:48:30;2.42;;;2.22;;
18425;SDS011;9340;48.756;9.226;2022-07-01T13:50:57;3.20;;;2.20;;
18425;SDS011;9340;48.756;9.226;2022-07-01T13:53:23;2.28;;;1.52;;
18425;SDS011;9340;48.756;9.226;2022-07-01T13:55:50;3.30;;;1.85;;
18425;SDS011;9340;48.756;9.226;2022-07-01T13:58:17;2.15;;;1.90;;
18425;SDS011;9340;48.756;9.226;2022-07-01T14:00:44;2.15;;;1.95;;
18425;SDS011;9340;48.756;9.226;2022-07-01T14:03:10;2.25;;;1.70;;
18425;SDS011;9340;48.756;9.226;2022-07-01T14:05:38;3.08;;;2.25;;
18425;SDS011;9340;48.756;9.226;2022-07-01T14:08:05;3.33;;;2.00;;
18425;SDS011;9340;48.756;9.226;2022-07-01T14:10:32;3.22;;;2.40;;
18425;SDS011;9340;48.756;9.226;2022-07-01T14:13:00;2.15;;;1.83;;
18425;SDS011;9340;48.756;9.226;2022-07-01T14:15:27;1.90;;;1.80;;
18425;SDS011;9340;48.756;9.226;2022-07-01T14:17:54;2.38;;;1.80;;
18425;SDS011;9340;48.756;9.226;2022-07-01T14:20:20;1.70;;;1.60;;
18425;SDS011;9340;48.756;9.226;2022-07-01T14:22:48;4.10;;;2.03;;
18425;SDS011;9340;48.756;9.226;2022-07-01T14:25:15;2.33;;;1.60;;
18425;SDS011;9340;48.756;9.226;2022-07-01T14:27:42;1.85;;;1.50;;
18425;SDS011;9340;48.756;9.226;2022-07-01T14:30:10;2.88;;;1.90;;
18425;SDS011;9340;48.756;9.226;2022-07-01T14:32:38;1.83;;;1.65;;
18425;SDS011;9340;48.756;9.226;2022-07-01T14:35:05;1.67;;;1.58;;
18425;SDS011;9340;48.756;9.226;2022-07-01T14:37:32;1.60;;;1.30;;
18425;SDS011;9340;48.756;9.226;2022-07-01T14:40:00;2.10;;;1.48;;
18425;SDS011;9340;48.756;9.226;2022-07-01T14:42:27;1.52;;;1.42;;
18425;SDS011;9340;48.756;9.226;2022-07-01T14:44:54;1.98;;;1.60;;
18425;SDS011;9340;48.756;9.226;2022-07-01T14:47:21;1.40;;;1.13;;
18425;SDS011;9340;48.756;9.226;2022-07-01T14:49:49;1.50;;;1.40;;
18425;SDS011;9340;48.756;9.226;2022-07-01T14:52:16;2.10;;;1.60;;
18425;SDS011;9340;48.756;9.226;2022-07-01T14:54:43;3.17;;;1.60;;
18425;SDS011;9340;48.756;9.226;2022-07-01T14:57:11;1.52;;;1.40;;
18425;SDS011;9340;48.756;9.226;2022-07-01T14:59:38;1.90;;;1.45;;
18425;SDS011;9340;48.756;9.226;2022-07-01T15:02:04;1.95;;;1.42;;
18425;SDS011;9340;48.756;9.226;2022-07-01T15:04:31;1.98;;;1.42;;
18425;SDS011;9340;48.756;9.226;2022-07-01T15:06:59;2.22;;;1.40;;
18425;SDS011;9340;48.756;9.226;2022-07-01T15:09:26;3.78;;;1.60;;
18425;SDS011;9340;48.756;9.226;2022-07-01T15:11:53;1.55;;;1.45;;